sensor_id;sensor_type;location;lat;lon;timestamp;pressure;altitude;pressure_sealevel;temperature;humidity
77723;BME280;67811;42.656;23.394;2024-02-04T00:01:26;95454.31;;;3.15;70.87
77723;BME280;67811;42.656;23.394;2024-02-04T00:05:31;95447.31;;;3.56;72.13
77723;BME280;67811;42.656;23.394;2024-02-04T00:09:37;95434.31;;;4.34;70.91
77723;BME280;67811;42.656;23.394;2024-02-04T00:13:42;95435.25;;;5.00;70.18
77723;BME280;67811;42.656;23.394;2024-02-04T00:17:47;95420.75;;;5.89;67.44
77723;BME280;67811;42.656;23.394;2024-02-04T00:21:53;95425.69;;;6.19;66.19
77723;BME280;67811;42.656;23.394;2024-02-04T00:25:58;95434.56;;;6.36;65.61
77723;BME280;67811;42.656;23.394;2024-02-04T00:30:04;95431.22;;;6.44;64.86
77723;BME280;67811;42.656;23.394;2024-02-04T00:34:09;95424.72;;;6.56;64.55
77723;BME280;67811;42.656;23.394;2024-02-04T00:38:15;95438.44;;;6.59;64.53
77723;BME280;67811;42.656;23.394;2024-02-04T00:42:20;95433.38;;;6.66;64.13
77723;BME280;67811;42.656;23.394;2024-02-04T00:46:25;95423.25;;;6.79;63.83
77723;BME280;67811;42.656;23.394;2024-02-04T00:50:30;95429.06;;;6.83;63.55
77723;BME280;67811;42.656;23.394;2024-02-04T00:54:36;95425.28;;;6.85;63.91
77723;BME280;67811;42.656;23.394;2024-02-04T00:58:41;95429.94;;;6.92;63.53
77723;BME280;67811;42.656;23.394;2024-02-04T01:02:46;95433.56;;;6.91;63.77
77723;BME280;67811;42.656;23.394;2024-02-04T01:06:52;95420.72;;;6.88;64.04
77723;BME280;67811;42.656;23.394;2024-02-04T01:10:57;95422.09;;;7.00;63.58
77723;BME280;67811;42.656;23.394;2024-02-04T01:15:02;95433.47;;;7.00;63.69
77723;BME280;67811;42.656;23.394;2024-02-04T01:19:08;95425.41;;;7.02;64.07
77723;BME280;67811;42.656;23.394;2024-02-04T01:23:13;95425.94;;;7.05;63.85
77723;BME280;67811;42.656;23.394;2024-02-04T01:27:18;95427.38;;;7.00;64.07
77723;BME280;67811;42.656;23.394;2024-02-04T01:31:24;95421.94;;;7.01;64.48
77723;BME280;67811;42.656;23.394;2024-02-04T01:35:29;95426.53;;;6.99;64.57
77723;BME280;67811;42.656;23.394;2024-02-04T01:39:34;95418.56;;;6.91;64.83
77723;BME280;67811;42.656;23.394;2024-02-04T01:43:39;95411.03;;;6.96;65.11
77723;BME280;67811;42.656;23.394;2024-02-04T01:47:45;95403.28;;;6.95;65.36
77723;BME280;67811;42.656;23.394;2024-02-04T01:51:50;95410.75;;;6.99;65.28
77723;BME280;67811;42.656;23.394;2024-02-04T01:55:56;95412.69;;;6.97;65.59
77723;BME280;67811;42.656;23.394;2024-02-04T02:00:02;95405.97;;;7.03;65.28
77723;BME280;67811;42.656;23.394;2024-02-04T02:04:07;95402.56;;;7.10;65.32
77723;BME280;67811;42.656;23.394;2024-02-04T02:08:13;95401.16;;;7.24;65.04
77723;BME280;67811;42.656;23.394;2024-02-04T02:12:25;95384.22;;;7.27;65.04
77723;BME280;67811;42.656;23.394;2024-02-04T02:16:32;95389.69;;;7.33;65.04
77723;BME280;67811;42.656;23.394;2024-02-04T02:20:55;95387.72;;;7.35;65.13
77723;BME280;67811;42.656;23.394;2024-02-04T02:25:07;95386.25;;;7.41;64.95
77723;BME280;67811;42.656;23.394;2024-02-04T02:29:13;95386.13;;;7.43;65.02
77723;BME280;67811;42.656;23.394;2024-02-04T02:33:18;95392.03;;;7.45;64.97
77723;BME280;67811;42.656;23.394;2024-02-04T02:37:31;95381.97;;;7.40;64.99
77723;BME280;67811;42.656;23.394;2024-02-04T02:41:42;95384.13;;;7.45;64.74
77723;BME280;67811;42.656;23.394;2024-02-04T02:45:47;95373.63;;;7.53;64.24
77723;BME280;67811;42.656;23.394;2024-02-04T02:49:53;95386.13;;;7.51;64.49
77723;BME280;67811;42.656;23.394;2024-02-04T02:53:59;95369.69;;;7.57;64.13
77723;BME280;67811;42.656;23.394;2024-02-04T02:58:04;95375.47;;;7.60;63.97
77723;BME280;67811;42.656;23.394;2024-02-04T03:02:09;95376.94;;;7.63;63.73
77723;BME280;67811;42.656;23.394;2024-02-04T03:06:15;95365.75;;;7.69;63.25
77723;BME280;67811;42.656;23.394;2024-02-04T03:10:20;95376.16;;;7.71;63.33
77723;BME280;67811;42.656;23.394;2024-02-04T03:14:25;95379.94;;;7.68;63.32
77723;BME280;67811;42.656;23.394;2024-02-04T03:18:30;95366.28;;;7.73;62.83
77723;BME280;67811;42.656;23.394;2024-02-04T03:22:36;95357.03;;;7.69;63.46
77723;BME280;67811;42.656;23.394;2024-02-04T03:26:41;95361.50;;;7.76;62.92
77723;BME280;67811;42.656;23.394;2024-02-04T03:30:46;95353.94;;;7.81;62.88
77723;BME280;67811;42.656;23.394;2024-02-04T03:34:52;95357.22;;;7.83;62.69
77723;BME280;67811;42.656;23.394;2024-02-04T03:38:57;95349.50;;;7.82;62.75
77723;BME280;67811;42.656;23.394;2024-02-04T03:43:03;95343.34;;;7.73;63.28
77723;BME280;67811;42.656;23.394;2024-02-04T03:47:08;95344.38;;;7.80;63.32
77723;BME280;67811;42.656;23.394;2024-02-04T03:51:17;95322.94;;;7.83;63.09
77723;BME280;67811;42.656;23.394;2024-02-04T03:55:23;95325.59;;;7.91;63.14
77723;BME280;67811;42.656;23.394;2024-02-04T03:59:28;95329.84;;;7.84;63.67
77723;BME280;67811;42.656;23.394;2024-02-04T04:03:33;95342.75;;;7.96;63.35
77723;BME280;67811;42.656;23.394;2024-02-04T04:07:39;95350.34;;;7.99;63.63
77723;BME280;67811;42.656;23.394;2024-02-04T04:11:45;95347.06;;;7.97;63.90
77723;BME280;67811;42.656;23.394;2024-02-04T04:15:51;95345.38;;;7.96;63.88
77723;BME280;67811;42.656;23.394;2024-02-04T04:19:56;95354.47;;;7.93;64.46
77723;BME280;67811;42.656;23.394;2024-02-04T04:24:01;95347.69;;;7.82;64.84
77723;BME280;67811;42.656;23.394;2024-02-04T04:28:07;95341.75;;;7.80;64.71
77723;BME280;67811;42.656;23.394;2024-02-04T04:32:12;95344.69;;;7.77;65.05
77723;BME280;67811;42.656;23.394;2024-02-04T04:36:17;95355.78;;;7.97;66.29
77723;BME280;67811;42.656;23.394;2024-02-04T04:40:22;95374.59;;;8.02;64.30
77723;BME280;67811;42.656;23.394;2024-02-04T04:44:28;95355.28;;;8.02;64.33
77723;BME280;67811;42.656;23.394;2024-02-04T04:48:33;95358.44;;;7.97;64.29
77723;BME280;67811;42.656;23.394;2024-02-04T04:52:38;95352.34;;;8.05;64.65
77723;BME280;67811;42.656;23.394;2024-02-04T04:56:44;95353.16;;;8.05;64.67
77723;BME280;67811;42.656;23.394;2024-02-04T05:00:49;95349.19;;;8.01;65.20
77723;BME280;67811;42.656;23.394;2024-02-04T05:04:54;95357.09;;;7.93;64.54
77723;BME280;67811;42.656;23.394;2024-02-04T05:09:00;95340.38;;;7.60;65.32
77723;BME280;67811;42.656;23.394;2024-02-04T05:13:05;95336.91;;;7.68;65.04
77723;BME280;67811;42.656;23.394;2024-02-04T05:17:10;95341.78;;;7.46;65.63
77723;BME280;67811;42.656;23.394;2024-02-04T05:21:15;95338.91;;;7.65;65.22
77723;BME280;67811;42.656;23.394;2024-02-04T05:25:21;95346.38;;;7.86;64.84
77723;BME280;67811;42.656;23.394;2024-02-04T05:29:26;95346.53;;;7.93;64.56
77723;BME280;67811;42.656;23.394;2024-02-04T05:33:31;95351.34;;;7.98;64.21
77723;BME280;67811;42.656;23.394;2024-02-04T05:37:37;95366.19;;;7.99;64.56
77723;BME280;67811;42.656;23.394;2024-02-04T05:41:42;95357.44;;;8.06;63.86
77723;BME280;67811;42.656;23.394;2024-02-04T05:45:48;95354.31;;;8.11;63.51
77723;BME280;67811;42.656;23.394;2024-02-04T05:49:53;95354.31;;;8.11;63.48
77723;BME280;67811;42.656;23.394;2024-02-04T05:53:58;95347.91;;;8.13;63.16
77723;BME280;67811;42.656;23.394;2024-02-04T05:58:04;95345.59;;;8.10;62.93
77723;BME280;67811;42.656;23.394;2024-02-04T06:02:09;95349.03;;;8.11;62.46
77723;BME280;67811;42.656;23.394;2024-02-04T06:06:15;95357.94;;;8.18;61.62
77723;BME280;67811;42.656;23.394;2024-02-04T06:10:21;95364.25;;;8.25;61.21
77723;BME280;67811;42.656;23.394;2024-02-04T06:14:26;95364.06;;;8.18;61.53
77723;BME280;67811;42.656;23.394;2024-02-04T06:18:31;95369.53;;;8.25;61.40
77723;BME280;67811;42.656;23.394;2024-02-04T06:22:36;95377.63;;;8.32;62.11
77723;BME280;67811;42.656;23.394;2024-02-04T06:26:42;95390.19;;;8.38;61.18
77723;BME280;67811;42.656;23.394;2024-02-04T06:30:48;95416.72;;;8.28;61.09
77723;BME280;67811;42.656;23.394;2024-02-04T06:34:53;95412.75;;;8.24;61.42
77723;BME280;67811;42.656;23.394;2024-02-04T06:38:59;95420.03;;;8.30;61.35
77723;BME280;67811;42.656;23.394;2024-02-04T06:43:04;95416.72;;;8.28;61.41
77723;BME280;67811;42.656;23.394;2024-02-04T06:47:09;95419.50;;;8.35;61.47
77723;BME280;67811;42.656;23.394;2024-02-04T06:51:15;95417.44;;;8.47;61.21
77723;BME280;67811;42.656;23.394;2024-02-04T06:55:20;95417.25;;;8.56;61.20
77723;BME280;67811;42.656;23.394;2024-02-04T06:59:25;95403.09;;;8.65;60.96
77723;BME280;67811;42.656;23.394;2024-02-04T07:03:31;95391.34;;;8.76;60.61
77723;BME280;67811;42.656;23.394;2024-02-04T07:07:36;95413.00;;;8.63;60.81
77723;BME280;67811;42.656;23.394;2024-02-04T07:11:42;95416.94;;;8.59;60.94
77723;BME280;67811;42.656;23.394;2024-02-04T07:15:47;95410.34;;;8.88;59.96
77723;BME280;67811;42.656;23.394;2024-02-04T07:19:52;95410.84;;;8.91;60.53
77723;BME280;67811;42.656;23.394;2024-02-04T07:23:58;95416.41;;;9.29;58.60
77723;BME280;67811;42.656;23.394;2024-02-04T07:28:03;95412.09;;;9.36;59.59
77723;BME280;67811;42.656;23.394;2024-02-04T07:32:08;95410.56;;;9.50;60.29
77723;BME280;67811;42.656;23.394;2024-02-04T07:36:14;95410.44;;;9.27;59.12
77723;BME280;67811;42.656;23.394;2024-02-04T07:40:19;95409.97;;;9.23;59.26
77723;BME280;67811;42.656;23.394;2024-02-04T07:44:24;95410.16;;;9.14;58.99
77723;BME280;67811;42.656;23.394;2024-02-04T07:48:29;95411.13;;;9.29;58.97
77723;BME280;67811;42.656;23.394;2024-02-04T07:52:35;95412.78;;;9.06;59.41
77723;BME280;67811;42.656;23.394;2024-02-04T07:56:40;95427.97;;;9.12;59.19
77723;BME280;67811;42.656;23.394;2024-02-04T08:00:46;95414.75;;;9.28;58.68
77723;BME280;67811;42.656;23.394;2024-02-04T08:04:52;95416.75;;;10.13;55.54
77723;BME280;67811;42.656;23.394;2024-02-04T08:08:57;95412.84;;;11.53;51.69
77723;BME280;67811;42.656;23.394;2024-02-04T08:13:03;95415.25;;;10.72;53.00
77723;BME280;67811;42.656;23.394;2024-02-04T08:17:08;95414.38;;;10.57;53.60
77723;BME280;67811;42.656;23.394;2024-02-04T08:21:13;95397.53;;;11.25;52.23
77723;BME280;67811;42.656;23.394;2024-02-04T08:25:19;95418.91;;;11.09;51.61
77723;BME280;67811;42.656;23.394;2024-02-04T08:29:24;95407.25;;;11.48;50.44
77723;BME280;67811;42.656;23.394;2024-02-04T08:33:29;95405.56;;;12.57;47.65
77723;BME280;67811;42.656;23.394;2024-02-04T08:37:35;95410.22;;;11.15;51.04
77723;BME280;67811;42.656;23.394;2024-02-04T08:41:40;95412.53;;;10.80;51.81
77723;BME280;67811;42.656;23.394;2024-02-04T08:45:45;95418.88;;;10.48;52.80
77723;BME280;67811;42.656;23.394;2024-02-04T08:49:51;95413.38;;;10.27;53.71
77723;BME280;67811;42.656;23.394;2024-02-04T08:53:56;95403.13;;;11.16;51.27
77723;BME280;67811;42.656;23.394;2024-02-04T08:58:01;95422.28;;;11.70;50.06
77723;BME280;67811;42.656;23.394;2024-02-04T09:02:07;95417.28;;;12.62;47.49
77723;BME280;67811;42.656;23.394;2024-02-04T09:06:12;95409.59;;;13.17;45.53
77723;BME280;67811;42.656;23.394;2024-02-04T09:10:17;95419.03;;;12.55;46.92
77723;BME280;67811;42.656;23.394;2024-02-04T09:14:22;95421.91;;;11.73;48.85
77723;BME280;67811;42.656;23.394;2024-02-04T09:18:28;95427.28;;;11.21;50.65
77723;BME280;67811;42.656;23.394;2024-02-04T09:22:33;95430.41;;;11.01;51.64
77723;BME280;67811;42.656;23.394;2024-02-04T09:26:38;95428.63;;;10.79;52.07
77723;BME280;67811;42.656;23.394;2024-02-04T09:30:44;95444.25;;;10.66;52.65
77723;BME280;67811;42.656;23.394;2024-02-04T09:34:49;95447.50;;;10.53;53.61
77723;BME280;67811;42.656;23.394;2024-02-04T09:38:54;95446.84;;;10.20;54.43
77723;BME280;67811;42.656;23.394;2024-02-04T09:43:00;95418.69;;;10.27;54.81
77723;BME280;67811;42.656;23.394;2024-02-04T09:47:07;95433.91;;;10.33;54.90
77723;BME280;67811;42.656;23.394;2024-02-04T09:51:13;95427.44;;;10.59;54.64
77723;BME280;67811;42.656;23.394;2024-02-04T09:55:20;95416.06;;;10.50;55.00
77723;BME280;67811;42.656;23.394;2024-02-04T09:59:25;95433.13;;;10.47;55.43
77723;BME280;67811;42.656;23.394;2024-02-04T10:03:31;95411.31;;;10.45;55.15
77723;BME280;67811;42.656;23.394;2024-02-04T10:07:36;95415.00;;;10.36;55.85
77723;BME280;67811;42.656;23.394;2024-02-04T10:11:42;95413.53;;;10.34;56.08
77723;BME280;67811;42.656;23.394;2024-02-04T10:15:48;95413.22;;;10.28;56.38
77723;BME280;67811;42.656;23.394;2024-02-04T10:19:53;95421.41;;;10.42;57.63
77723;BME280;67811;42.656;23.394;2024-02-04T10:23:59;95416.81;;;10.59;56.86
77723;BME280;67811;42.656;23.394;2024-02-04T10:28:04;95403.88;;;10.64;56.50
77723;BME280;67811;42.656;23.394;2024-02-04T10:32:10;95413.53;;;10.79;56.45
77723;BME280;67811;42.656;23.394;2024-02-04T10:36:15;95409.44;;;10.92;56.23
77723;BME280;67811;42.656;23.394;2024-02-04T10:40:21;95391.00;;;10.98;55.91
77723;BME280;67811;42.656;23.394;2024-02-04T10:44:27;95391.41;;;10.87;55.74
77723;BME280;67811;42.656;23.394;2024-02-04T10:48:36;95401.19;;;10.72;56.39
77723;BME280;67811;42.656;23.394;2024-02-04T10:52:45;95400.47;;;10.78;56.37
77723;BME280;67811;42.656;23.394;2024-02-04T10:56:56;95398.56;;;10.64;56.90
77723;BME280;67811;42.656;23.394;2024-02-04T11:01:04;95395.19;;;10.55;56.86
77723;BME280;67811;42.656;23.394;2024-02-04T11:05:09;95391.63;;;10.63;56.90
77723;BME280;67811;42.656;23.394;2024-02-04T11:09:16;95370.06;;;10.66;56.50
77723;BME280;67811;42.656;23.394;2024-02-04T11:13:23;95369.38;;;10.72;56.42
77723;BME280;67811;42.656;23.394;2024-02-04T11:22:18;95360.41;;;11.11;55.20
77723;BME280;67811;42.656;23.394;2024-02-04T11:26:27;95356.81;;;11.03;54.96
77723;BME280;67811;42.656;23.394;2024-02-04T11:30:34;95360.06;;;11.43;54.16
77723;BME280;67811;42.656;23.394;2024-02-04T11:34:39;95365.53;;;11.27;54.75
77723;BME280;67811;42.656;23.394;2024-02-04T11:38:48;95362.31;;;11.17;54.73
77723;BME280;67811;42.656;23.394;2024-02-04T11:47:10;95345.94;;;11.72;53.11
77723;BME280;67811;42.656;23.394;2024-02-04T11:51:16;95357.84;;;12.49;51.29
77723;BME280;67811;42.656;23.394;2024-02-04T11:55:22;95329.88;;;13.02;49.60
77723;BME280;67811;42.656;23.394;2024-02-04T11:59:27;95320.44;;;13.00;49.00
77723;BME280;67811;42.656;23.394;2024-02-04T12:03:34;95313.16;;;13.43;48.41
77723;BME280;67811;42.656;23.394;2024-02-04T12:07:40;95312.25;;;13.64;47.62
77723;BME280;67811;42.656;23.394;2024-02-04T12:11:46;95309.31;;;14.00;46.30
77723;BME280;67811;42.656;23.394;2024-02-04T12:15:52;95311.69;;;13.82;46.42
77723;BME280;67811;42.656;23.394;2024-02-04T12:19:57;95312.09;;;13.79;45.97
77723;BME280;67811;42.656;23.394;2024-02-04T12:24:03;95286.69;;;13.35;47.32
77723;BME280;67811;42.656;23.394;2024-02-04T12:28:09;95293.31;;;13.93;46.62
77723;BME280;67811;42.656;23.394;2024-02-04T12:32:14;95291.94;;;14.17;45.24
77723;BME280;67811;42.656;23.394;2024-02-04T12:36:19;95295.59;;;14.03;45.54
77723;BME280;67811;42.656;23.394;2024-02-04T12:40:29;95299.50;;;14.14;45.38
77723;BME280;67811;42.656;23.394;2024-02-04T12:44:34;95290.66;;;14.00;45.19
77723;BME280;67811;42.656;23.394;2024-02-04T12:48:40;95307.66;;;13.92;45.41
77723;BME280;67811;42.656;23.394;2024-02-04T12:52:46;95303.22;;;13.58;45.79
77723;BME280;67811;42.656;23.394;2024-02-04T12:56:53;95311.94;;;13.87;45.34
77723;BME280;67811;42.656;23.394;2024-02-04T13:01:00;95304.03;;;14.13;44.48
77723;BME280;67811;42.656;23.394;2024-02-04T13:05:05;95324.63;;;13.43;45.74
77723;BME280;67811;42.656;23.394;2024-02-04T13:09:11;95317.47;;;13.16;46.62
77723;BME280;67811;42.656;23.394;2024-02-04T13:13:16;95327.50;;;13.14;46.86
77723;BME280;67811;42.656;23.394;2024-02-04T13:17:21;95323.81;;;13.15;46.61
77723;BME280;67811;42.656;23.394;2024-02-04T13:21:28;95329.66;;;12.76;47.80
77723;BME280;67811;42.656;23.394;2024-02-04T13:25:33;95334.25;;;12.60;48.48
77723;BME280;67811;42.656;23.394;2024-02-04T13:29:39;95330.09;;;12.79;48.16
77723;BME280;67811;42.656;23.394;2024-02-04T13:33:44;95345.13;;;12.65;48.42
77723;BME280;67811;42.656;23.394;2024-02-04T13:37:49;95328.53;;;12.63;48.44
77723;BME280;67811;42.656;23.394;2024-02-04T13:41:55;95329.88;;;12.31;49.17
77723;BME280;67811;42.656;23.394;2024-02-04T13:46:00;95334.81;;;12.56;49.01
77723;BME280;67811;42.656;23.394;2024-02-04T13:50:06;95341.13;;;12.33;49.48
77723;BME280;67811;42.656;23.394;2024-02-04T13:54:12;95349.78;;;12.63;48.76
77723;BME280;67811;42.656;23.394;2024-02-04T13:58:17;95350.19;;;12.39;49.37
77723;BME280;67811;42.656;23.394;2024-02-04T14:02:22;95330.19;;;12.22;50.16
77723;BME280;67811;42.656;23.394;2024-02-04T14:06:28;95346.94;;;11.86;50.92
77723;BME280;67811;42.656;23.394;2024-02-04T14:10:33;95349.69;;;11.78;51.42
77723;BME280;67811;42.656;23.394;2024-02-04T14:14:38;95359.31;;;11.94;51.20
77723;BME280;67811;42.656;23.394;2024-02-04T14:18:44;95355.09;;;11.84;51.21
77723;BME280;67811;42.656;23.394;2024-02-04T14:22:49;95369.63;;;11.74;51.36
77723;BME280;67811;42.656;23.394;2024-02-04T14:26:58;95365.25;;;11.96;51.13
77723;BME280;67811;42.656;23.394;2024-02-04T14:31:04;95362.63;;;12.17;50.54
77723;BME280;67811;42.656;23.394;2024-02-04T14:35:09;95357.44;;;12.09;50.63
77723;BME280;67811;42.656;23.394;2024-02-04T14:39:14;95362.31;;;12.27;49.93
77723;BME280;67811;42.656;23.394;2024-02-04T14:43:20;95361.69;;;11.89;51.15
77723;BME280;67811;42.656;23.394;2024-02-04T14:47:29;95368.53;;;11.68;52.17
77723;BME280;67811;42.656;23.394;2024-02-04T14:51:34;95367.91;;;11.51;53.10
77723;BME280;67811;42.656;23.394;2024-02-04T14:55:42;95372.03;;;11.39;52.66
77723;BME280;67811;42.656;23.394;2024-02-04T14:59:48;95368.91;;;11.21;53.37
77723;BME280;67811;42.656;23.394;2024-02-04T15:03:53;95377.56;;;11.15;53.59
77723;BME280;67811;42.656;23.394;2024-02-04T15:07:58;95383.59;;;10.94;54.45
77723;BME280;67811;42.656;23.394;2024-02-04T15:12:04;95378.97;;;10.88;54.79
77723;BME280;67811;42.656;23.394;2024-02-04T15:16:11;95369.53;;;10.70;55.94
77723;BME280;67811;42.656;23.394;2024-02-04T15:20:16;95360.34;;;10.58;55.83
77723;BME280;67811;42.656;23.394;2024-02-04T15:24:22;95376.34;;;10.50;57.34
77723;BME280;67811;42.656;23.394;2024-02-04T15:28:28;95364.84;;;10.35;56.78
77723;BME280;67811;42.656;23.394;2024-02-04T15:32:33;95379.44;;;10.31;56.89
77723;BME280;67811;42.656;23.394;2024-02-04T15:36:39;95381.16;;;10.23;57.38
77723;BME280;67811;42.656;23.394;2024-02-04T15:40:44;95379.16;;;10.17;57.72
77723;BME280;67811;42.656;23.394;2024-02-04T15:44:49;95387.25;;;10.16;57.87
77723;BME280;67811;42.656;23.394;2024-02-04T15:48:55;95389.59;;;10.11;57.96
77723;BME280;67811;42.656;23.394;2024-02-04T15:53:03;95402.50;;;10.14;58.35
77723;BME280;67811;42.656;23.394;2024-02-04T15:57:09;95389.78;;;10.09;58.59
77723;BME280;67811;42.656;23.394;2024-02-04T16:01:15;95390.09;;;10.14;58.15
77723;BME280;67811;42.656;23.394;2024-02-04T16:05:21;95383.06;;;9.98;58.53
77723;BME280;67811;42.656;23.394;2024-02-04T16:09:30;95379.34;;;9.85;58.94
77723;BME280;67811;42.656;23.394;2024-02-04T16:13:35;95370.97;;;9.73;59.28
77723;BME280;67811;42.656;23.394;2024-02-04T16:17:43;95365.38;;;9.60;59.99
77723;BME280;67811;42.656;23.394;2024-02-04T16:21:48;95377.34;;;9.47;60.25
77723;BME280;67811;42.656;23.394;2024-02-04T16:25:53;95382.00;;;9.45;60.35
77723;BME280;67811;42.656;23.394;2024-02-04T16:29:58;95384.47;;;9.39;60.75
77723;BME280;67811;42.656;23.394;2024-02-04T16:34:04;95388.97;;;9.22;61.56
77723;BME280;67811;42.656;23.394;2024-02-04T16:38:09;95383.34;;;9.25;61.35
77723;BME280;67811;42.656;23.394;2024-02-04T16:42:14;95391.97;;;9.11;61.79
77723;BME280;67811;42.656;23.394;2024-02-04T16:46:20;95397.25;;;9.11;61.96
77723;BME280;67811;42.656;23.394;2024-02-04T16:50:25;95404.88;;;9.06;61.95
77723;BME280;67811;42.656;23.394;2024-02-04T16:54:30;95403.72;;;9.00;61.77
77723;BME280;67811;42.656;23.394;2024-02-04T16:58:35;95406.22;;;8.93;62.60
77723;BME280;67811;42.656;23.394;2024-02-04T17:02:41;95419.44;;;9.02;62.13
77723;BME280;67811;42.656;23.394;2024-02-04T17:06:47;95416.75;;;9.10;63.02
77723;BME280;67811;42.656;23.394;2024-02-04T17:10:53;95422.72;;;9.04;62.57
77723;BME280;67811;42.656;23.394;2024-02-04T17:14:59;95427.00;;;9.05;62.10
77723;BME280;67811;42.656;23.394;2024-02-04T17:23:20;95432.28;;;9.05;62.45
77723;BME280;67811;42.656;23.394;2024-02-04T17:27:25;95423.22;;;9.07;61.99
77723;BME280;67811;42.656;23.394;2024-02-04T17:31:31;95428.00;;;9.04;62.20
77723;BME280;67811;42.656;23.394;2024-02-04T17:35:36;95430.66;;;8.95;62.63
77723;BME280;67811;42.656;23.394;2024-02-04T17:39:41;95431.81;;;8.93;62.68
77723;BME280;67811;42.656;23.394;2024-02-04T17:43:46;95426.19;;;8.88;62.74
77723;BME280;67811;42.656;23.394;2024-02-04T17:47:52;95438.44;;;8.81;62.83
77723;BME280;67811;42.656;23.394;2024-02-04T17:51:57;95430.16;;;8.76;62.95
77723;BME280;67811;42.656;23.394;2024-02-04T17:56:03;95428.66;;;8.73;62.82
77723;BME280;67811;42.656;23.394;2024-02-04T18:00:09;95440.25;;;8.64;62.97
77723;BME280;67811;42.656;23.394;2024-02-04T18:04:15;95450.63;;;8.57;63.29
77723;BME280;67811;42.656;23.394;2024-02-04T18:08:20;95453.41;;;8.56;63.65
77723;BME280;67811;42.656;23.394;2024-02-04T18:12:26;95462.34;;;8.55;63.35
77723;BME280;67811;42.656;23.394;2024-02-04T18:16:32;95466.16;;;8.68;62.13
77723;BME280;67811;42.656;23.394;2024-02-04T18:20:37;95457.41;;;8.76;61.14
77723;BME280;67811;42.656;23.394;2024-02-04T18:24:43;95456.59;;;8.76;60.79
77723;BME280;67811;42.656;23.394;2024-02-04T18:28:48;95465.34;;;9.09;60.57
77723;BME280;67811;42.656;23.394;2024-02-04T18:32:54;95461.38;;;9.29;59.43
77723;BME280;67811;42.656;23.394;2024-02-04T18:36:59;95450.78;;;9.29;58.57
77723;BME280;67811;42.656;23.394;2024-02-04T18:41:08;95461.50;;;9.36;58.54
77723;BME280;67811;42.656;23.394;2024-02-04T18:45:13;95464.00;;;9.29;58.96
77723;BME280;67811;42.656;23.394;2024-02-04T18:49:19;95469.94;;;9.31;58.76
77723;BME280;67811;42.656;23.394;2024-02-04T18:53:25;95455.44;;;9.19;59.63
77723;BME280;67811;42.656;23.394;2024-02-04T18:57:31;95468.47;;;9.20;59.55
77723;BME280;67811;42.656;23.394;2024-02-04T19:01:36;95467.97;;;9.25;59.38
77723;BME280;67811;42.656;23.394;2024-02-04T19:05:42;95478.22;;;9.20;59.75
77723;BME280;67811;42.656;23.394;2024-02-04T19:09:47;95467.31;;;9.23;59.53
77723;BME280;67811;42.656;23.394;2024-02-04T19:13:52;95467.34;;;9.07;59.95
77723;BME280;67811;42.656;23.394;2024-02-04T19:17:58;95469.31;;;9.13;60.01
77723;BME280;67811;42.656;23.394;2024-02-04T19:22:03;95466.00;;;9.03;59.99
77723;BME280;67811;42.656;23.394;2024-02-04T19:26:09;95454.63;;;9.02;59.63
77723;BME280;67811;42.656;23.394;2024-02-04T19:30:14;95454.59;;;9.10;59.16
77723;BME280;67811;42.656;23.394;2024-02-04T19:34:20;95464.19;;;9.03;58.97
77723;BME280;67811;42.656;23.394;2024-02-04T19:38:25;95466.16;;;9.09;58.85
77723;BME280;67811;42.656;23.394;2024-02-04T19:42:30;95462.69;;;9.01;58.78
77723;BME280;67811;42.656;23.394;2024-02-04T19:46:36;95467.16;;;9.00;58.61
77723;BME280;67811;42.656;23.394;2024-02-04T19:50:41;95475.44;;;8.97;58.43
77723;BME280;67811;42.656;23.394;2024-02-04T19:54:47;95470.47;;;9.02;58.18
77723;BME280;67811;42.656;23.394;2024-02-04T19:58:52;95475.09;;;8.92;58.52
77723;BME280;67811;42.656;23.394;2024-02-04T20:02:57;95476.91;;;9.08;57.32
77723;BME280;67811;42.656;23.394;2024-02-04T20:07:03;95480.03;;;8.95;58.18
77723;BME280;67811;42.656;23.394;2024-02-04T20:11:08;95478.56;;;8.92;57.49
77723;BME280;67811;42.656;23.394;2024-02-04T20:15:14;95479.56;;;8.91;57.42
77723;BME280;67811;42.656;23.394;2024-02-04T20:19:19;95472.94;;;8.87;57.69
77723;BME280;67811;42.656;23.394;2024-02-04T20:23:24;95469.66;;;8.85;57.39
77723;BME280;67811;42.656;23.394;2024-02-04T20:27:29;95468.16;;;8.75;57.87
77723;BME280;67811;42.656;23.394;2024-02-04T20:31:35;95468.97;;;8.83;57.81
77723;BME280;67811;42.656;23.394;2024-02-04T20:35:40;95467.81;;;8.78;57.72
77723;BME280;67811;42.656;23.394;2024-02-04T20:39:45;95463.66;;;8.67;57.96
77723;BME280;67811;42.656;23.394;2024-02-04T20:43:51;95464.66;;;8.66;58.06
77723;BME280;67811;42.656;23.394;2024-02-04T20:47:56;95459.72;;;8.63;57.77
77723;BME280;67811;42.656;23.394;2024-02-04T20:52:02;95459.34;;;8.41;59.61
77723;BME280;67811;42.656;23.394;2024-02-04T20:56:07;95449.09;;;8.38;59.39
77723;BME280;67811;42.656;23.394;2024-02-04T21:00:13;95452.97;;;8.18;60.77
77723;BME280;67811;42.656;23.394;2024-02-04T21:04:18;95450.97;;;8.12;59.96
77723;BME280;67811;42.656;23.394;2024-02-04T21:08:23;95453.66;;;8.28;59.59
77723;BME280;67811;42.656;23.394;2024-02-04T21:12:29;95451.69;;;8.22;59.46
77723;BME280;67811;42.656;23.394;2024-02-04T21:16:34;95452.31;;;8.08;59.97
77723;BME280;67811;42.656;23.394;2024-02-04T21:20:39;95455.56;;;7.93;60.82
77723;BME280;67811;42.656;23.394;2024-02-04T21:24:45;95454.84;;;7.83;61.46
77723;BME280;67811;42.656;23.394;2024-02-04T21:28:50;95455.66;;;7.76;61.96
77723;BME280;67811;42.656;23.394;2024-02-04T21:32:55;95450.78;;;7.63;62.48
77723;BME280;67811;42.656;23.394;2024-02-04T21:37:00;95454.59;;;7.60;62.29
77723;BME280;67811;42.656;23.394;2024-02-04T21:41:06;95465.41;;;7.49;63.34
77723;BME280;67811;42.656;23.394;2024-02-04T21:45:11;95450.16;;;7.35;63.84
77723;BME280;67811;42.656;23.394;2024-02-04T21:49:16;95460.34;;;7.04;65.12